sensor_id;sensor_type;location;lat;lon;timestamp;P1;durP1;ratioP1;P2;durP2;ratioP2
84082;SDS011;74174;52.224;6.878;2024-03-23T00:56:14;30.13;;;5.65;;
84082;SDS011;74174;52.224;6.878;2024-03-23T00:58:39;19.00;;;5.78;;
84082;SDS011;74174;52.224;6.878;2024-03-23T01:01:05;22.95;;;4.50;;
84082;SDS011;74174;52.224;6.878;2024-03-23T01:03:30;19.88;;;4.93;;
84082;SDS011;74174;52.224;6.878;2024-03-23T01:05:59;31.42;;;5.45;;
84082;SDS011;74174;52.224;6.878;2024-03-23T01:08:25;27.70;;;4.72;;
84082;SDS011;74174;52.224;6.878;2024-03-23T01:10:54;23.33;;;4.65;;
84082;SDS011;74174;52.224;6.878;2024-03-23T01:13:24;24.02;;;3.80;;
84082;SDS011;74174;52.224;6.878;2024-03-23T01:15:50;23.27;;;4.45;;
84082;SDS011;74174;52.224;6.878;2024-03-23T01:18:16;21.63;;;4.53;;
84082;SDS011;74174;52.224;6.878;2024-03-23T01:20:46;18.88;;;4.80;;
84082;SDS011;74174;52.224;6.878;2024-03-23T01:23:12;21.90;;;6.30;;
84082;SDS011;74174;52.224;6.878;2024-03-23T01:25:38;22.05;;;5.13;;
84082;SDS011;74174;52.224;6.878;2024-03-23T01:28:03;20.92;;;5.55;;
84082;SDS011;74174;52.224;6.878;2024-03-23T01:30:34;22.23;;;4.78;;
84082;SDS011;74174;52.224;6.878;2024-03-23T01:33:00;24.60;;;5.07;;
84082;SDS011;74174;52.224;6.878;2024-03-23T01:35:25;28.08;;;5.18;;
84082;SDS011;74174;52.224;6.878;2024-03-23T01:37:51;21.40;;;5.57;;
84082;SDS011;74174;52.224;6.878;2024-03-23T01:40:16;18.98;;;5.53;;
84082;SDS011;74174;52.224;6.878;2024-03-23T01:42:54;28.92;;;5.90;;
84082;SDS011;74174;52.224;6.878;2024-03-23T01:45:21;24.73;;;4.65;;
84082;SDS011;74174;52.224;6.878;2024-03-23T01:47:46;28.45;;;5.43;;
84082;SDS011;74174;52.224;6.878;2024-03-23T01:50:13;23.17;;;5.50;;
84082;SDS011;74174;52.224;6.878;2024-03-23T01:52:38;25.77;;;4.93;;
84082;SDS011;74174;52.224;6.878;2024-03-23T01:55:04;21.17;;;4.50;;
84082;SDS011;74174;52.224;6.878;2024-03-23T01:57:30;22.90;;;4.88;;
84082;SDS011;74174;52.224;6.878;2024-03-23T01:59:56;19.92;;;6.05;;
84082;SDS011;74174;52.224;6.878;2024-03-23T02:02:21;24.65;;;5.10;;
84082;SDS011;74174;52.224;6.878;2024-03-23T02:04:46;26.00;;;5.95;;
84082;SDS011;74174;52.224;6.878;2024-03-23T02:07:12;27.77;;;5.35;;
84082;SDS011;74174;52.224;6.878;2024-03-23T02:09:37;24.83;;;6.00;;
84082;SDS011;74174;52.224;6.878;2024-03-23T02:12:03;18.83;;;4.47;;
84082;SDS011;74174;52.224;6.878;2024-03-23T02:14:29;22.73;;;4.72;;
84082;SDS011;74174;52.224;6.878;2024-03-23T02:16:54;23.63;;;5.50;;
84082;SDS011;74174;52.224;6.878;2024-03-23T02:19:20;20.45;;;5.95;;
84082;SDS011;74174;52.224;6.878;2024-03-23T02:21:45;29.30;;;4.60;;
84082;SDS011;74174;52.224;6.878;2024-03-23T02:24:12;25.85;;;4.78;;
84082;SDS011;74174;52.224;6.878;2024-03-23T02:26:37;21.58;;;4.90;;
84082;SDS011;74174;52.224;6.878;2024-03-23T02:29:02;30.08;;;5.28;;
84082;SDS011;74174;52.224;6.878;2024-03-23T02:31:28;20.08;;;4.93;;
84082;SDS011;74174;52.224;6.878;2024-03-23T02:33:55;18.27;;;4.68;;
84082;SDS011;74174;52.224;6.878;2024-03-23T02:36:20;18.58;;;4.63;;
84082;SDS011;74174;52.224;6.878;2024-03-23T02:38:46;20.77;;;4.70;;
84082;SDS011;74174;52.224;6.878;2024-03-23T02:41:11;19.70;;;4.28;;
84082;SDS011;74174;52.224;6.878;2024-03-23T02:43:37;21.02;;;4.93;;
84082;SDS011;74174;52.224;6.878;2024-03-23T02:46:03;25.73;;;4.53;;
84082;SDS011;74174;52.224;6.878;2024-03-23T02:48:29;18.63;;;4.22;;
84082;SDS011;74174;52.224;6.878;2024-03-23T02:50:55;21.10;;;4.18;;
84082;SDS011;74174;52.224;6.878;2024-03-23T02:53:20;19.77;;;5.10;;
84082;SDS011;74174;52.224;6.878;2024-03-23T02:55:45;25.73;;;4.50;;
84082;SDS011;74174;52.224;6.878;2024-03-23T02:58:11;23.73;;;4.40;;
84082;SDS011;74174;52.224;6.878;2024-03-23T03:00:36;32.15;;;5.60;;
84082;SDS011;74174;52.224;6.878;2024-03-23T03:03:02;24.20;;;5.18;;
84082;SDS011;74174;52.224;6.878;2024-03-23T03:05:28;29.50;;;6.35;;
84082;SDS011;74174;52.224;6.878;2024-03-23T03:07:53;21.33;;;5.10;;
84082;SDS011;74174;52.224;6.878;2024-03-23T03:10:19;25.75;;;4.60;;
84082;SDS011;74174;52.224;6.878;2024-03-23T03:12:45;16.20;;;5.15;;
84082;SDS011;74174;52.224;6.878;2024-03-23T03:15:10;20.65;;;5.43;;
84082;SDS011;74174;52.224;6.878;2024-03-23T03:17:35;30.65;;;7.18;;
84082;SDS011;74174;52.224;6.878;2024-03-23T03:20:01;27.02;;;5.47;;
84082;SDS011;74174;52.224;6.878;2024-03-23T03:22:26;25.92;;;4.95;;
84082;SDS011;74174;52.224;6.878;2024-03-23T03:24:51;23.45;;;5.43;;
84082;SDS011;74174;52.224;6.878;2024-03-23T03:27:17;22.88;;;5.72;;
84082;SDS011;74174;52.224;6.878;2024-03-23T03:29:42;26.33;;;5.93;;
84082;SDS011;74174;52.224;6.878;2024-03-23T03:32:08;20.63;;;6.45;;
84082;SDS011;74174;52.224;6.878;2024-03-23T03:34:34;29.35;;;6.40;;
84082;SDS011;74174;52.224;6.878;2024-03-23T03:37:01;24.13;;;6.57;;
84082;SDS011;74174;52.224;6.878;2024-03-23T03:39:26;25.27;;;6.10;;
84082;SDS011;74174;52.224;6.878;2024-03-23T03:41:52;28.67;;;5.88;;
84082;SDS011;74174;52.224;6.878;2024-03-23T03:44:17;24.60;;;6.65;;
84082;SDS011;74174;52.224;6.878;2024-03-23T03:46:42;23.98;;;6.15;;
84082;SDS011;74174;52.224;6.878;2024-03-23T03:49:09;26.98;;;6.93;;
84082;SDS011;74174;52.224;6.878;2024-03-23T03:51:34;29.05;;;5.93;;
84082;SDS011;74174;52.224;6.878;2024-03-23T03:54:02;28.33;;;6.53;;
84082;SDS011;74174;52.224;6.878;2024-03-23T03:56:27;25.90;;;5.38;;
84082;SDS011;74174;52.224;6.878;2024-03-23T03:58:53;24.88;;;6.38;;
84082;SDS011;74174;52.224;6.878;2024-03-23T04:01:19;26.45;;;6.63;;
84082;SDS011;74174;52.224;6.878;2024-03-23T04:03:44;31.30;;;5.88;;
84082;SDS011;74174;52.224;6.878;2024-03-23T04:06:10;24.15;;;7.07;;
84082;SDS011;74174;52.224;6.878;2024-03-23T04:08:35;28.08;;;7.35;;
84082;SDS011;74174;52.224;6.878;2024-03-23T04:11:02;22.77;;;6.35;;
84082;SDS011;74174;52.224;6.878;2024-03-23T04:13:27;29.35;;;6.93;;
84082;SDS011;74174;52.224;6.878;2024-03-23T04:15:56;28.63;;;6.30;;
84082;SDS011;74174;52.224;6.878;2024-03-23T04:18:22;22.88;;;6.28;;
84082;SDS011;74174;52.224;6.878;2024-03-23T04:20:51;33.60;;;7.65;;
84082;SDS011;74174;52.224;6.878;2024-03-23T04:23:17;27.95;;;7.05;;
84082;SDS011;74174;52.224;6.878;2024-03-23T04:25:42;19.77;;;7.15;;
84082;SDS011;74174;52.224;6.878;2024-03-23T04:28:07;30.08;;;7.50;;
84082;SDS011;74174;52.224;6.878;2024-03-23T04:30:33;28.33;;;6.72;;
84082;SDS011;74174;52.224;6.878;2024-03-23T04:33:00;28.27;;;7.22;;
84082;SDS011;74174;52.224;6.878;2024-03-23T04:35:26;30.73;;;8.05;;
84082;SDS011;74174;52.224;6.878;2024-03-23T04:37:52;28.10;;;7.78;;
84082;SDS011;74174;52.224;6.878;2024-03-23T04:40:24;27.23;;;8.00;;
84082;SDS011;74174;52.224;6.878;2024-03-23T04:42:50;26.83;;;8.00;;
84082;SDS011;74174;52.224;6.878;2024-03-23T04:45:15;24.30;;;7.82;;
84082;SDS011;74174;52.224;6.878;2024-03-23T04:47:41;29.58;;;8.43;;
84082;SDS011;74174;52.224;6.878;2024-03-23T04:50:06;41.53;;;9.57;;
84082;SDS011;74174;52.224;6.878;2024-03-23T04:52:32;38.72;;;10.02;;
84082;SDS011;74174;52.224;6.878;2024-03-23T04:54:57;31.65;;;9.80;;
84082;SDS011;74174;52.224;6.878;2024-03-23T04:57:22;35.38;;;9.80;;
84082;SDS011;74174;52.224;6.878;2024-03-23T04:59:48;33.42;;;8.93;;
84082;SDS011;74174;52.224;6.878;2024-03-23T05:02:14;28.85;;;8.27;;
84082;SDS011;74174;52.224;6.878;2024-03-23T05:04:39;36.17;;;9.63;;
84082;SDS011;74174;52.224;6.878;2024-03-23T05:07:08;37.55;;;9.50;;
84082;SDS011;74174;52.224;6.878;2024-03-23T05:09:33;27.80;;;9.00;;
84082;SDS011;74174;52.224;6.878;2024-03-23T05:11:59;33.92;;;9.52;;
84082;SDS011;74174;52.224;6.878;2024-03-23T05:14:27;30.40;;;9.77;;
84082;SDS011;74174;52.224;6.878;2024-03-23T05:16:53;31.08;;;10.63;;
84082;SDS011;74174;52.224;6.878;2024-03-23T05:19:19;27.42;;;10.13;;
84082;SDS011;74174;52.224;6.878;2024-03-23T05:21:44;35.90;;;9.32;;
84082;SDS011;74174;52.224;6.878;2024-03-23T05:24:11;29.48;;;9.20;;
84082;SDS011;74174;52.224;6.878;2024-03-23T05:26:37;29.30;;;9.43;;
84082;SDS011;74174;52.224;6.878;2024-03-23T05:29:03;29.48;;;9.57;;
84082;SDS011;74174;52.224;6.878;2024-03-23T05:31:30;32.25;;;10.63;;
84082;SDS011;74174;52.224;6.878;2024-03-23T05:33:57;27.02;;;9.07;;
84082;SDS011;74174;52.224;6.878;2024-03-23T05:36:22;30.38;;;10.23;;
84082;SDS011;74174;52.224;6.878;2024-03-23T05:38:49;29.83;;;9.75;;
84082;SDS011;74174;52.224;6.878;2024-03-23T05:41:15;36.63;;;10.60;;
84082;SDS011;74174;52.224;6.878;2024-03-23T05:43:41;31.58;;;10.13;;
84082;SDS011;74174;52.224;6.878;2024-03-23T05:46:06;31.85;;;9.88;;
84082;SDS011;74174;52.224;6.878;2024-03-23T05:48:34;23.35;;;10.40;;
84082;SDS011;74174;52.224;6.878;2024-03-23T05:51:00;29.52;;;9.85;;
84082;SDS011;74174;52.224;6.878;2024-03-23T05:53:25;31.00;;;10.18;;
84082;SDS011;74174;52.224;6.878;2024-03-23T05:56:03;28.27;;;10.13;;
84082;SDS011;74174;52.224;6.878;2024-03-23T05:58:28;36.47;;;11.75;;
84082;SDS011;74174;52.224;6.878;2024-03-23T06:00:57;31.27;;;10.82;;
84082;SDS011;74174;52.224;6.878;2024-03-23T06:03:24;28.30;;;10.57;;
84082;SDS011;74174;52.224;6.878;2024-03-23T06:05:50;27.40;;;9.82;;
84082;SDS011;74174;52.224;6.878;2024-03-23T06:08:16;27.75;;;9.73;;
84082;SDS011;74174;52.224;6.878;2024-03-23T06:10:42;28.73;;;11.10;;
84082;SDS011;74174;52.224;6.878;2024-03-23T06:13:07;38.85;;;9.73;;
84082;SDS011;74174;52.224;6.878;2024-03-23T06:15:33;32.95;;;10.60;;
84082;SDS011;74174;52.224;6.878;2024-03-23T06:18:02;29.58;;;9.30;;
84082;SDS011;74174;52.224;6.878;2024-03-23T06:20:29;26.58;;;10.25;;
84082;SDS011;74174;52.224;6.878;2024-03-23T06:22:54;28.15;;;10.85;;
84082;SDS011;74174;52.224;6.878;2024-03-23T06:25:19;28.45;;;10.77;;
84082;SDS011;74174;52.224;6.878;2024-03-23T06:27:45;37.22;;;11.00;;
84082;SDS011;74174;52.224;6.878;2024-03-23T06:30:10;31.75;;;9.95;;
84082;SDS011;74174;52.224;6.878;2024-03-23T06:32:36;25.05;;;9.05;;
84082;SDS011;74174;52.224;6.878;2024-03-23T06:35:02;34.22;;;10.60;;
84082;SDS011;74174;52.224;6.878;2024-03-23T06:37:33;35.50;;;10.48;;
84082;SDS011;74174;52.224;6.878;2024-03-23T06:39:59;35.00;;;10.27;;
84082;SDS011;74174;52.224;6.878;2024-03-23T06:42:24;32.90;;;11.20;;
84082;SDS011;74174;52.224;6.878;2024-03-23T06:44:50;32.42;;;10.13;;
84082;SDS011;74174;52.224;6.878;2024-03-23T06:47:15;28.25;;;9.10;;
84082;SDS011;74174;52.224;6.878;2024-03-23T06:49:42;29.20;;;7.85;;
84082;SDS011;74174;52.224;6.878;2024-03-23T06:52:07;27.10;;;9.68;;
84082;SDS011;74174;52.224;6.878;2024-03-23T06:54:32;31.27;;;7.90;;
84082;SDS011;74174;52.224;6.878;2024-03-23T06:57:04;26.08;;;7.75;;
84082;SDS011;74174;52.224;6.878;2024-03-23T06:59:31;24.75;;;7.55;;
84082;SDS011;74174;52.224;6.878;2024-03-23T07:01:56;23.15;;;7.07;;
84082;SDS011;74174;52.224;6.878;2024-03-23T07:04:23;20.10;;;6.43;;
84082;SDS011;74174;52.224;6.878;2024-03-23T07:06:48;26.08;;;7.75;;
84082;SDS011;74174;52.224;6.878;2024-03-23T07:09:13;22.20;;;7.80;;
84082;SDS011;74174;52.224;6.878;2024-03-23T07:11:39;21.25;;;6.32;;
84082;SDS011;74174;52.224;6.878;2024-03-23T07:14:06;24.33;;;6.22;;
84082;SDS011;74174;52.224;6.878;2024-03-23T07:16:32;26.60;;;7.10;;
84082;SDS011;74174;52.224;6.878;2024-03-23T07:18:57;23.30;;;6.20;;
84082;SDS011;74174;52.224;6.878;2024-03-23T07:21:23;20.17;;;6.25;;
84082;SDS011;74174;52.224;6.878;2024-03-23T07:23:49;19.83;;;5.70;;
84082;SDS011;74174;52.224;6.878;2024-03-23T07:26:14;22.25;;;6.10;;
84082;SDS011;74174;52.224;6.878;2024-03-23T07:28:40;23.67;;;5.20;;
84082;SDS011;74174;52.224;6.878;2024-03-23T07:31:11;15.85;;;4.75;;
84082;SDS011;74174;52.224;6.878;2024-03-23T07:33:41;18.45;;;3.88;;
84082;SDS011;74174;52.224;6.878;2024-03-23T07:36:08;11.30;;;4.15;;
84082;SDS011;74174;52.224;6.878;2024-03-23T07:38:34;13.60;;;4.82;;
84082;SDS011;74174;52.224;6.878;2024-03-23T07:41:06;17.45;;;3.90;;
84082;SDS011;74174;52.224;6.878;2024-03-23T07:43:33;16.00;;;3.75;;
84082;SDS011;74174;52.224;6.878;2024-03-23T07:45:59;16.48;;;3.75;;
84082;SDS011;74174;52.224;6.878;2024-03-23T07:48:25;13.38;;;3.88;;
84082;SDS011;74174;52.224;6.878;2024-03-23T07:53:26;9.95;;;2.25;;
84082;SDS011;74174;52.224;6.878;2024-03-23T07:55:52;13.98;;;3.15;;
84082;SDS011;74174;52.224;6.878;2024-03-23T07:58:19;14.77;;;2.97;;
84082;SDS011;74174;52.224;6.878;2024-03-23T08:00:45;10.90;;;2.70;;
84082;SDS011;74174;52.224;6.878;2024-03-23T08:03:10;9.55;;;1.92;;
84082;SDS011;74174;52.224;6.878;2024-03-23T08:05:35;11.48;;;2.67;;
84082;SDS011;74174;52.224;6.878;2024-03-23T08:08:01;9.93;;;1.98;;
84082;SDS011;74174;52.224;6.878;2024-03-23T08:10:26;14.52;;;3.03;;
84082;SDS011;74174;52.224;6.878;2024-03-23T08:12:53;14.50;;;2.42;;
84082;SDS011;74174;52.224;6.878;2024-03-23T08:15:18;13.48;;;2.53;;
84082;SDS011;74174;52.224;6.878;2024-03-23T08:17:43;14.48;;;3.03;;
84082;SDS011;74174;52.224;6.878;2024-03-23T08:20:09;13.55;;;3.08;;
84082;SDS011;74174;52.224;6.878;2024-03-23T08:22:35;12.73;;;2.17;;
84082;SDS011;74174;52.224;6.878;2024-03-23T08:25:00;13.15;;;2.35;;
84082;SDS011;74174;52.224;6.878;2024-03-23T08:27:27;11.27;;;2.60;;
84082;SDS011;74174;52.224;6.878;2024-03-23T08:29:52;8.20;;;2.17;;
84082;SDS011;74174;52.224;6.878;2024-03-23T08:32:18;10.35;;;2.55;;
84082;SDS011;74174;52.224;6.878;2024-03-23T08:34:44;8.88;;;2.00;;
84082;SDS011;74174;52.224;6.878;2024-03-23T08:37:10;13.65;;;2.80;;
84082;SDS011;74174;52.224;6.878;2024-03-23T08:39:36;11.18;;;2.42;;
84082;SDS011;74174;52.224;6.878;2024-03-23T08:42:01;12.13;;;1.95;;
84082;SDS011;74174;52.224;6.878;2024-03-23T08:44:27;13.77;;;1.70;;
84082;SDS011;74174;52.224;6.878;2024-03-23T08:46:55;10.27;;;1.58;;
84082;SDS011;74174;52.224;6.878;2024-03-23T08:49:22;10.25;;;2.40;;
84082;SDS011;74174;52.224;6.878;2024-03-23T08:51:48;13.02;;;1.70;;
84082;SDS011;74174;52.224;6.878;2024-03-23T08:54:13;9.80;;;2.05;;
84082;SDS011;74174;52.224;6.878;2024-03-23T08:56:39;12.48;;;1.98;;
84082;SDS011;74174;52.224;6.878;2024-03-23T08:59:05;7.40;;;1.15;;
84082;SDS011;74174;52.224;6.878;2024-03-23T09:01:30;6.05;;;1.45;;
84082;SDS011;74174;52.224;6.878;2024-03-23T09:03:56;12.15;;;1.90;;
84082;SDS011;74174;52.224;6.878;2024-03-23T09:06:21;11.20;;;2.45;;
84082;SDS011;74174;52.224;6.878;2024-03-23T09:08:47;6.30;;;1.60;;
84082;SDS011;74174;52.224;6.878;2024-03-23T09:11:14;10.77;;;2.35;;
84082;SDS011;74174;52.224;6.878;2024-03-23T09:13:39;7.80;;;1.60;;
84082;SDS011;74174;52.224;6.878;2024-03-23T09:16:06;8.18;;;2.03;;
84082;SDS011;74174;52.224;6.878;2024-03-23T09:18:34;5.97;;;1.15;;
84082;SDS011;74174;52.224;6.878;2024-03-23T09:21:00;6.10;;;1.42;;
84082;SDS011;74174;52.224;6.878;2024-03-23T09:23:28;7.43;;;1.35;;
84082;SDS011;74174;52.224;6.878;2024-03-23T09:25:53;8.40;;;1.48;;
84082;SDS011;74174;52.224;6.878;2024-03-23T09:28:19;5.20;;;1.05;;
84082;SDS011;74174;52.224;6.878;2024-03-23T09:30:44;6.10;;;1.45;;
84082;SDS011;74174;52.224;6.878;2024-03-23T09:33:10;7.70;;;2.10;;
84082;SDS011;74174;52.224;6.878;2024-03-23T09:35:39;10.93;;;1.90;;
84082;SDS011;74174;52.224;6.878;2024-03-23T09:38:05;5.80;;;1.38;;
84082;SDS011;74174;52.224;6.878;2024-03-23T09:40:33;10.00;;;1.55;;
84082;SDS011;74174;52.224;6.878;2024-03-23T09:42:59;8.35;;;1.30;;
84082;SDS011;74174;52.224;6.878;2024-03-23T09:45:28;9.85;;;1.23;;
84082;SDS011;74174;52.224;6.878;2024-03-23T09:47:54;7.25;;;1.55;;
84082;SDS011;74174;52.224;6.878;2024-03-23T09:50:26;9.07;;;1.27;;
84082;SDS011;74174;52.224;6.878;2024-03-23T09:52:52;4.22;;;1.42;;
84082;SDS011;74174;52.224;6.878;2024-03-23T09:55:18;6.18;;;1.70;;
84082;SDS011;74174;52.224;6.878;2024-03-23T09:57:45;7.90;;;1.15;;
84082;SDS011;74174;52.224;6.878;2024-03-23T10:00:11;7.97;;;0.93;;
84082;SDS011;74174;52.224;6.878;2024-03-23T10:02:37;9.02;;;1.48;;
84082;SDS011;74174;52.224;6.878;2024-03-23T10:05:02;7.53;;;1.95;;
84082;SDS011;74174;52.224;6.878;2024-03-23T10:07:29;4.78;;;0.77;;
84082;SDS011;74174;52.224;6.878;2024-03-23T10:09:54;9.05;;;1.60;;
84082;SDS011;74174;52.224;6.878;2024-03-23T10:12:20;7.78;;;1.38;;
84082;SDS011;74174;52.224;6.878;2024-03-23T10:14:46;7.55;;;0.93;;
84082;SDS011;74174;52.224;6.878;2024-03-23T10:17:14;10.32;;;1.23;;
84082;SDS011;74174;52.224;6.878;2024-03-23T10:19:46;8.95;;;1.00;;
84082;SDS011;74174;52.224;6.878;2024-03-23T10:22:17;5.97;;;1.30;;
84082;SDS011;74174;52.224;6.878;2024-03-23T10:24:43;7.32;;;1.02;;
84082;SDS011;74174;52.224;6.878;2024-03-23T10:27:09;5.72;;;0.90;;
84082;SDS011;74174;52.224;6.878;2024-03-23T10:29:38;6.40;;;0.80;;
84082;SDS011;74174;52.224;6.878;2024-03-23T10:32:09;4.00;;;1.30;;
84082;SDS011;74174;52.224;6.878;2024-03-23T10:34:54;3.70;;;1.05;;
84082;SDS011;74174;52.224;6.878;2024-03-23T10:37:20;7.70;;;0.73;;
84082;SDS011;74174;52.224;6.878;2024-03-23T10:39:45;5.35;;;0.85;;
84082;SDS011;74174;52.224;6.878;2024-03-23T10:42:11;5.43;;;0.93;;
84082;SDS011;74174;52.224;6.878;2024-03-23T10:44:37;2.70;;;0.63;;
84082;SDS011;74174;52.224;6.878;2024-03-23T10:47:05;4.47;;;0.50;;
84082;SDS011;74174;52.224;6.878;2024-03-23T10:49:34;5.45;;;0.60;;
84082;SDS011;74174;52.224;6.878;2024-03-23T10:52:01;2.63;;;0.77;;
84082;SDS011;74174;52.224;6.878;2024-03-23T10:54:29;5.20;;;0.60;;
84082;SDS011;74174;52.224;6.878;2024-03-23T10:59:56;6.20;;;0.68;;
84082;SDS011;74174;52.224;6.878;2024-03-23T11:02:22;6.35;;;0.73;;
84082;SDS011;74174;52.224;6.878;2024-03-23T11:04:47;5.28;;;1.35;;
84082;SDS011;74174;52.224;6.878;2024-03-23T11:09:55;3.35;;;0.50;;
84082;SDS011;74174;52.224;6.878;2024-03-23T11:14:52;1.27;;;0.30;;
84082;SDS011;74174;52.224;6.878;2024-03-23T11:17:29;4.57;;;0.75;;
84082;SDS011;74174;52.224;6.878;2024-03-23T11:20:04;2.95;;;0.73;;
84082;SDS011;74174;52.224;6.878;2024-03-23T11:27:39;4.57;;;0.45;;
84082;SDS011;74174;52.224;6.878;2024-03-23T11:30:11;3.88;;;0.43;;
84082;SDS011;74174;52.224;6.878;2024-03-23T11:32:42;3.33;;;0.73;;
84082;SDS011;74174;52.224;6.878;2024-03-23T11:35:08;6.43;;;0.70;;
84082;SDS011;74174;52.224;6.878;2024-03-23T11:37:35;1.75;;;0.70;;
84082;SDS011;74174;52.224;6.878;2024-03-23T11:40:18;3.22;;;0.50;;
84082;SDS011;74174;52.224;6.878;2024-03-23T11:42:44;1.90;;;0.43;;
84082;SDS011;74174;52.224;6.878;2024-03-23T11:45:10;8.35;;;0.57;;
84082;SDS011;74174;52.224;6.878;2024-03-23T11:47:36;3.92;;;0.77;;
84082;SDS011;74174;52.224;6.878;2024-03-23T11:50:01;2.85;;;0.80;;
84082;SDS011;74174;52.224;6.878;2024-03-23T11:52:26;3.10;;;0.75;;
84082;SDS011;74174;52.224;6.878;2024-03-23T11:55:02;2.60;;;0.57;;
84082;SDS011;74174;52.224;6.878;2024-03-23T11:57:29;4.97;;;0.65;;
84082;SDS011;74174;52.224;6.878;2024-03-23T11:59:55;2.78;;;0.52;;
84082;SDS011;74174;52.224;6.878;2024-03-23T12:02:20;4.60;;;0.65;;
84082;SDS011;74174;52.224;6.878;2024-03-23T12:04:45;7.40;;;0.88;;
84082;SDS011;74174;52.224;6.878;2024-03-23T12:07:18;3.42;;;0.57;;
84082;SDS011;74174;52.224;6.878;2024-03-23T12:09:45;4.38;;;0.40;;
84082;SDS011;74174;52.224;6.878;2024-03-23T12:12:18;3.95;;;0.70;;
84082;SDS011;74174;52.224;6.878;2024-03-23T12:14:44;4.53;;;0.80;;
84082;SDS011;74174;52.224;6.878;2024-03-23T12:17:14;3.40;;;0.43;;
84082;SDS011;74174;52.224;6.878;2024-03-23T12:19:40;5.72;;;0.93;;
84082;SDS011;74174;52.224;6.878;2024-03-23T12:22:08;2.92;;;0.55;;
84082;SDS011;74174;52.224;6.878;2024-03-23T12:24:35;3.47;;;0.70;;
84082;SDS011;74174;52.224;6.878;2024-03-23T12:27:04;3.55;;;0.60;;
84082;SDS011;74174;52.224;6.878;2024-03-23T12:29:33;1.88;;;0.40;;
84082;SDS011;74174;52.224;6.878;2024-03-23T12:31:59;4.95;;;0.70;;
84082;SDS011;74174;52.224;6.878;2024-03-23T12:34:26;5.22;;;0.52;;
84082;SDS011;74174;52.224;6.878;2024-03-23T12:36:51;7.35;;;1.15;;
84082;SDS011;74174;52.224;6.878;2024-03-23T12:39:17;3.30;;;0.75;;
84082;SDS011;74174;52.224;6.878;2024-03-23T12:41:45;4.60;;;0.68;;
84082;SDS011;74174;52.224;6.878;2024-03-23T12:44:12;6.63;;;0.68;;
84082;SDS011;74174;52.224;6.878;2024-03-23T12:46:39;4.93;;;0.80;;
84082;SDS011;74174;52.224;6.878;2024-03-23T12:49:04;3.75;;;0.88;;
84082;SDS011;74174;52.224;6.878;2024-03-23T12:51:30;6.40;;;0.50;;
84082;SDS011;74174;52.224;6.878;2024-03-23T12:53:56;3.22;;;0.50;;
84082;SDS011;74174;52.224;6.878;2024-03-23T12:56:21;6.47;;;1.05;;
84082;SDS011;74174;52.224;6.878;2024-03-23T12:58:47;3.58;;;0.40;;
84082;SDS011;74174;52.224;6.878;2024-03-23T13:01:18;5.88;;;0.55;;
84082;SDS011;74174;52.224;6.878;2024-03-23T13:03:45;6.97;;;1.00;;
84082;SDS011;74174;52.224;6.878;2024-03-23T13:06:11;4.50;;;0.77;;
84082;SDS011;74174;52.224;6.878;2024-03-23T13:08:37;4.47;;;0.45;;
84082;SDS011;74174;52.224;6.878;2024-03-23T13:11:05;4.28;;;0.45;;
84082;SDS011;74174;52.224;6.878;2024-03-23T13:13:32;3.70;;;0.47;;
84082;SDS011;74174;52.224;6.878;2024-03-23T13:15:58;4.30;;;0.50;;
84082;SDS011;74174;52.224;6.878;2024-03-23T13:18:23;4.60;;;0.52;;
84082;SDS011;74174;52.224;6.878;2024-03-23T13:20:49;4.22;;;1.33;;
84082;SDS011;74174;52.224;6.878;2024-03-23T13:23:14;5.75;;;0.50;;
84082;SDS011;74174;52.224;6.878;2024-03-23T13:25:40;4.10;;;0.82;;
84082;SDS011;74174;52.224;6.878;2024-03-23T13:28:05;5.72;;;2.20;;
84082;SDS011;74174;52.224;6.878;2024-03-23T13:30:32;6.80;;;1.17;;
84082;SDS011;74174;52.224;6.878;2024-03-23T13:32:58;8.23;;;0.88;;
84082;SDS011;74174;52.224;6.878;2024-03-23T13:35:23;7.63;;;1.13;;
84082;SDS011;74174;52.224;6.878;2024-03-23T13:37:48;4.50;;;0.73;;
84082;SDS011;74174;52.224;6.878;2024-03-23T13:40:15;4.00;;;0.55;;
84082;SDS011;74174;52.224;6.878;2024-03-23T13:42:40;3.90;;;0.90;;
84082;SDS011;74174;52.224;6.878;2024-03-23T13:45:06;3.42;;;0.77;;
84082;SDS011;74174;52.224;6.878;2024-03-23T13:47:31;6.68;;;0.70;;
84082;SDS011;74174;52.224;6.878;2024-03-23T13:49:58;5.25;;;1.02;;
84082;SDS011;74174;52.224;6.878;2024-03-23T13:52:23;4.88;;;1.02;;
84082;SDS011;74174;52.224;6.878;2024-03-23T13:54:50;6.63;;;1.20;;
84082;SDS011;74174;52.224;6.878;2024-03-23T13:57:16;5.57;;;0.65;;
84082;SDS011;74174;52.224;6.878;2024-03-23T13:59:42;6.13;;;1.13;;
84082;SDS011;74174;52.224;6.878;2024-03-23T14:02:07;7.35;;;1.02;;
84082;SDS011;74174;52.224;6.878;2024-03-23T14:04:33;4.43;;;1.00;;
84082;SDS011;74174;52.224;6.878;2024-03-23T14:07:00;3.38;;;0.50;;
84082;SDS011;74174;52.224;6.878;2024-03-23T14:09:26;5.85;;;0.73;;
84082;SDS011;74174;52.224;6.878;2024-03-23T14:11:53;4.88;;;0.80;;
84082;SDS011;74174;52.224;6.878;2024-03-23T14:14:18;6.05;;;0.73;;
84082;SDS011;74174;52.224;6.878;2024-03-23T14:16:43;2.85;;;0.50;;
84082;SDS011;74174;52.224;6.878;2024-03-23T14:19:09;3.38;;;0.40;;
84082;SDS011;74174;52.224;6.878;2024-03-23T14:21:37;4.00;;;0.50;;
84082;SDS011;74174;52.224;6.878;2024-03-23T14:24:03;4.55;;;0.70;;
84082;SDS011;74174;52.224;6.878;2024-03-23T14:26:29;3.03;;;0.45;;
84082;SDS011;74174;52.224;6.878;2024-03-23T14:28:54;5.30;;;0.73;;
84082;SDS011;74174;52.224;6.878;2024-03-23T14:31:20;9.63;;;0.85;;
84082;SDS011;74174;52.224;6.878;2024-03-23T14:33:46;3.65;;;0.63;;
84082;SDS011;74174;52.224;6.878;2024-03-23T14:36:13;2.42;;;0.60;;
84082;SDS011;74174;52.224;6.878;2024-03-23T14:38:38;4.95;;;0.70;;
84082;SDS011;74174;52.224;6.878;2024-03-23T14:41:04;6.57;;;0.90;;
84082;SDS011;74174;52.224;6.878;2024-03-23T14:43:29;2.97;;;0.77;;
84082;SDS011;74174;52.224;6.878;2024-03-23T14:46:05;3.63;;;0.52;;
84082;SDS011;74174;52.224;6.878;2024-03-23T14:48:31;2.50;;;0.73;;
84082;SDS011;74174;52.224;6.878;2024-03-23T14:50:57;3.30;;;0.68;;
84082;SDS011;74174;52.224;6.878;2024-03-23T14:53:24;5.00;;;0.40;;
84082;SDS011;74174;52.224;6.878;2024-03-23T14:55:50;7.53;;;1.48;;
84082;SDS011;74174;52.224;6.878;2024-03-23T14:58:15;3.15;;;0.70;;
84082;SDS011;74174;52.224;6.878;2024-03-23T15:00:41;5.30;;;0.70;;
84082;SDS011;74174;52.224;6.878;2024-03-23T15:03:07;4.38;;;0.60;;
84082;SDS011;74174;52.224;6.878;2024-03-23T15:05:32;5.85;;;0.82;;
84082;SDS011;74174;52.224;6.878;2024-03-23T15:07:58;4.35;;;0.98;;
84082;SDS011;74174;52.224;6.878;2024-03-23T15:10:24;9.80;;;1.20;;
84082;SDS011;74174;52.224;6.878;2024-03-23T15:12:49;4.15;;;0.55;;
84082;SDS011;74174;52.224;6.878;2024-03-23T15:15:14;4.68;;;0.70;;
84082;SDS011;74174;52.224;6.878;2024-03-23T15:17:41;6.22;;;0.85;;
84082;SDS011;74174;52.224;6.878;2024-03-23T15:20:09;5.05;;;1.35;;
84082;SDS011;74174;52.224;6.878;2024-03-23T15:22:36;5.65;;;0.50;;
84082;SDS011;74174;52.224;6.878;2024-03-23T15:25:02;3.75;;;0.47;;
84082;SDS011;74174;52.224;6.878;2024-03-23T15:27:28;4.45;;;0.73;;
84082;SDS011;74174;52.224;6.878;2024-03-23T15:29:53;3.65;;;0.75;;
84082;SDS011;74174;52.224;6.878;2024-03-23T15:32:21;6.00;;;0.77;;
84082;SDS011;74174;52.224;6.878;2024-03-23T15:34:47;4.82;;;0.65;;
84082;SDS011;74174;52.224;6.878;2024-03-23T15:37:12;3.38;;;0.60;;
84082;SDS011;74174;52.224;6.878;2024-03-23T15:39:37;8.02;;;0.70;;
84082;SDS011;74174;52.224;6.878;2024-03-23T15:42:06;7.25;;;0.90;;
84082;SDS011;74174;52.224;6.878;2024-03-23T15:44:33;2.80;;;0.70;;
84082;SDS011;74174;52.224;6.878;2024-03-23T15:46:58;3.22;;;0.70;;